Lexington, Illinois
Current Conditions -  °F | °C
As of 10:56 AM on Thursday 23 Oct 2014 (Local Time) from KBMI Reporting Station
Clear Clear  
Wind Chill: 11°   Ceiling: Unl
Heat Index: 11°   Visibility: 10mi
Dew Point:   Wind: 10mph
Humidity: 77%   Direction: 200°SSW
Pressure: 30.23"   Gusts: NA
Location:  40.64°N, 88.78°W
Report Text: KBMI 231556Z 20009KT 10SM CLR 11/07 A3023 RMK AO2 T01110072 SLP242
Loading
Personal Weather Stations






























Interactive Weather Map
Tropical Storm Tracking
New forecast layout! Learn more

10-Day Weather Forecast

Advertisements
Track Severe Weather on mobile